METAR Data
IDs: Format: Raw Decoded Include TAF

Data at: 0100 UTC 06 Dec 2019

KRNC 060055Z AUTO 00000KT 10SM CLR 05/01 A3012 RMK A01
KRNC 060035Z AUTO 00000KT 10SM FEW120 05/M00 A3012 RMK A01
KRNC 060015Z AUTO 00000KT 10SM CLR 06/M00 A3012 RMK A01
KRNC 052355Z AUTO 00000KT 10SM CLR 06/00 A3011 RMK A01
KRNC 052335Z AUTO 00000KT 10SM CLR 07/M00 A3010 RMK A01
KRNC 052315Z AUTO 00000KT 10SM CLR 09/M00 A3010 RMK A01
KRNC 052255Z AUTO 00000KT 10SM CLR 11/M03 A3010 RMK A01
KRNC 052230Z AUTO 00000KT 10SM CLR 12/M03 A3010 RMK A01
KRNC 052215Z AUTO 00000KT 10SM CLR 14/M04 A3010 RMK A01
KRNC 052155Z AUTO 00000KT 10SM CLR 15/M04 A3010 RMK A01
KRNC 052135Z AUTO 25004KT 10SM CLR 16/M05 A3010 RMK A01
KRNC 052115Z AUTO 00000KT 10SM CLR 16/M06 A3009 RMK A01
KRNC 052055Z AUTO 23004KT 10SM CLR 16/M05 A3009 RMK A01
KRNC 052035Z AUTO 26004KT 10SM CLR 17/M05 A3009 RMK A01
KRNC 052015Z AUTO 24004KT 10SM CLR 16/M04 A3010 RMK A01
KRNC 051955Z AUTO 00000KT 10SM CLR 16/M05 A3010 RMK A01
KRNC 051935Z AUTO 25005KT 10SM CLR 16/M04 A3010 RMK A01
KRNC 051915Z AUTO VRB05KT 10SM CLR 16/M03 A3011 RMK A01
KRNC 051855Z AUTO 23004KT 10SM CLR 16/M03 A3011 RMK A01
KRNC 051835Z AUTO 19005KT 10SM CLR 16/M02 A3012 RMK A01
KRNC 051815Z AUTO 00000KT 10SM CLR 15/M02 A3012 RMK A01
KRNC 051755Z AUTO VRB04KT 10SM CLR 15/M01 A3013 RMK A01
KRNC 051735Z AUTO 00000KT 10SM CLR 14/M01 A3014 RMK A01
KRNC 051715Z AUTO 24004KT 10SM CLR 13/M00 A3014 RMK A01
KRNC 051655Z AUTO 24004KT 10SM CLR 12/M00 A3015 RMK A01
KRNC 051615Z AUTO 21004KT 10SM CLR 11/01 A3016 RMK A01
KRNC 051555Z AUTO 00000KT 10SM CLR 10/01 A3016 RMK A01
KRNC 051535Z AUTO 24003KT 10SM CLR 08/02 A3017 RMK A01
KRNC 051515Z AUTO 00000KT 10SM CLR 07/02 A3016 RMK A01
KRNC 051455Z AUTO 00000KT 10SM CLR 05/01 A3015 RMK A01
KRNC 051435Z AUTO 00000KT 10SM CLR 04/01 A3014 RMK A01
KRNC 051415Z AUTO 00000KT 10SM CLR 02/00 A3014 RMK A01
KRNC 051355Z AUTO 00000KT 10SM CLR 00/M01 A3012 RMK A01
KRNC 051335Z AUTO 00000KT 10SM CLR M02/M02 A3012 RMK A01
KRNC 051315Z AUTO 00000KT 10SM CLR M02/M03 A3011 RMK A01
KRNC 051255Z AUTO 00000KT 10SM CLR M03/M03 A3010 RMK A01
KRNC 051235Z AUTO 00000KT 10SM CLR M02/M03 A3009 RMK A01
KRNC 051215Z AUTO 00000KT 10SM CLR M02/M03 A3009 RMK A01
KRNC 051155Z AUTO 00000KT 10SM CLR M02/M03 A3008 RMK A01
KRNC 051135Z AUTO 00000KT 10SM CLR M02/M03 A3008 RMK A01
KRNC 051115Z AUTO 00000KT 10SM CLR M02/M03 A3007 RMK A01
KRNC 051055Z AUTO 00000KT 10SM CLR M02/M03 A3007 RMK A01
KRNC 051035Z AUTO 00000KT 10SM CLR M02/M03 A3006 RMK A01
KRNC 051015Z AUTO 00000KT 10SM CLR M02/M03 A3006 RMK A01
KRNC 050955Z AUTO 00000KT 10SM CLR M02/M03 A3006 RMK A01
KRNC 050935Z AUTO 00000KT 10SM CLR M01/M03 A3006 RMK A01
KRNC 050915Z AUTO 00000KT 10SM CLR M01/M03 A3006 RMK A01
KRNC 050855Z AUTO 00000KT 10SM CLR M02/M03 A3006 RMK A01
KRNC 050835Z AUTO 00000KT 10SM CLR M01/M03 A3005 RMK A01
KRNC 050815Z AUTO 00000KT 10SM CLR M01/M02 A3005 RMK A01
KRNC 050755Z AUTO 00000KT 10SM CLR M01/M02 A3005 RMK A01
KRNC 050735Z AUTO 00000KT 10SM CLR 00/M02 A3004 RMK A01
KRNC 050715Z AUTO 00000KT 10SM CLR 00/M02 A3004 RMK A01
KRNC 050655Z AUTO 00000KT 10SM CLR 01/M02 A3004 RMK A01
KRNC 050635Z AUTO 00000KT 10SM CLR 02/M01 A3003 RMK A01
KRNC 050615Z AUTO 21003KT 10SM CLR 01/M01 A3003 RMK A01
KRNC 050555Z AUTO 00000KT 10SM CLR 00/M02 A3002 RMK A01
KRNC 050535Z AUTO 00000KT 10SM CLR 01/M01 A3002 RMK A01
KRNC 050515Z AUTO 20003KT 10SM CLR 01/M01 A3001 RMK A01
KRNC 050455Z AUTO 00000KT 10SM CLR 00/M01 A3001 RMK A01
KRNC 050435Z AUTO 00000KT 10SM CLR 01/M01 A3000 RMK A01
KRNC 050415Z AUTO 23003KT 10SM CLR 01/M02 A3000 RMK A01
KRNC 050355Z AUTO 26004KT 10SM CLR 02/M01 A2999 RMK A01
KRNC 050335Z AUTO 00000KT 10SM CLR 02/M01 A2999 RMK A01
KRNC 050315Z AUTO 00000KT 10SM CLR 02/M02 A2999 RMK A01
KRNC 050255Z AUTO 00000KT 10SM CLR 02/M02 A2998 RMK A01
KRNC 050235Z AUTO 00000KT 10SM CLR 02/M02 A2997 RMK A01
KRNC 050215Z AUTO 00000KT 10SM CLR 04/M01 A2997 RMK A01
KRNC 050155Z AUTO 00000KT 10SM CLR 03/M00 A2997 RMK A01
KRNC 050135Z AUTO 00000KT 10SM CLR 03/M01 A2996 RMK A01
KRNC 050115Z AUTO 00000KT 10SM CLR 03/M01 A2996 RMK A01
KRNC 050055Z AUTO 00000KT 10SM CLR 03/M01 A2996 RMK A01
KRNC 050035Z AUTO 00000KT 10SM CLR 05/M01 A2996 RMK A01
KRNC 050015Z AUTO 00000KT 10SM CLR 06/M01 A2995 RMK A01
KRNC 042355Z AUTO 00000KT 10SM CLR 07/M01 A2994 RMK A01
KRNC 042335Z AUTO 00000KT 10SM CLR 07/M02 A2994 RMK A01
KRNC 042315Z AUTO 24004KT 10SM CLR 08/M02 A2993 RMK A01
KRNC 042255Z AUTO 25005KT 10SM CLR 09/M02 A2993 RMK A01
KRNC 042235Z AUTO 27003KT 10SM CLR 10/M02 A2992 RMK A01
KRNC 042215Z AUTO 00000KT 10SM CLR 11/M02 A2991 RMK A01
KRNC 042155Z AUTO 29004KT 10SM CLR 12/M03 A2991 RMK A01
KRNC 042135Z AUTO VRB05G10KT 10SM CLR 13/M03 A2990 RMK A01
KRNC 042115Z AUTO 30007KT 10SM CLR 13/M03 A2990 RMK A01
KRNC 042055Z AUTO 31005KT 10SM CLR 14/M03 A2989 RMK A01
KRNC 042035Z AUTO 28007G13KT 10SM CLR 14/M02 A2989 RMK A01
KRNC 042015Z AUTO 29008G14KT 10SM CLR 14/M03 A2988 RMK A01
KRNC 041955Z AUTO 30007KT 270V330 10SM CLR 14/M03 A2988 RMK A01
KRNC 041935Z AUTO VRB06G15KT 250V350 10SM CLR 13/M03 A2988 RMK A01
KRNC 041915Z AUTO 27009G14KT 10SM CLR 13/M02 A2988 RMK A01
KRNC 041855Z AUTO 30007G14KT 10SM CLR 13/M02 A2989 RMK A01
KRNC 041835Z AUTO 28007G14KT 10SM CLR 13/M03 A2989 RMK A01
KRNC 041815Z AUTO 26008KT 240V300 10SM CLR 12/M00 A2989 RMK A01
KRNC 041755Z AUTO VRB06G13KT 10SM CLR 12/00 A2990 RMK A01
KRNC 041735Z AUTO 26009KT 10SM CLR 11/00 A2991 RMK A01
KRNC 041715Z AUTO 28006G12KT 10SM CLR 10/01 A2991 RMK A01
KRNC 041655Z AUTO 27006G13KT 10SM CLR 09/02 A2992 RMK A01
KRNC 041635Z AUTO 25008KT 10SM CLR 09/02 A2992 RMK A01
KRNC 041615Z AUTO 25009KT 10SM CLR 08/02 A2992 RMK A01
KRNC 041555Z AUTO 27006KT 10SM CLR 08/02 A2992 RMK A01
KRNC 041535Z AUTO 24007KT 9SM CLR 07/02 A2992 RMK A01
KRNC 041515Z AUTO 24006KT 10SM CLR 06/02 A2992 RMK A01
KRNC 041455Z AUTO 22005KT 10SM CLR 05/02 A2992 RMK A01
KRNC 041435Z AUTO 23005KT 10SM CLR 05/02 A2991 RMK A01
KRNC 041415Z AUTO 22005KT 10SM CLR 04/01 A2991 RMK A01
KRNC 041355Z AUTO 22005KT 10SM CLR 03/00 A2991 RMK A01
KRNC 041335Z AUTO 22003KT 10SM CLR 02/M00 A2990 RMK A01
KRNC 041315Z AUTO 00000KT 10SM CLR 01/M01 A2990 RMK A01